sensor_id;sensor_type;location;lat;lon;timestamp;temperature;humidity
20141;DHT22;10231;47.702;9.826;2023-12-20T00:02:16;3.60;99.90
20141;DHT22;10231;47.702;9.826;2023-12-20T00:04:42;3.60;99.90
20141;DHT22;10231;47.702;9.826;2023-12-20T00:07:07;3.60;99.90
20141;DHT22;10231;47.702;9.826;2023-12-20T00:09:33;3.50;99.90
20141;DHT22;10231;47.702;9.826;2023-12-20T00:11:58;3.50;99.90
20141;DHT22;10231;47.702;9.826;2023-12-20T00:14:24;3.50;99.90
20141;DHT22;10231;47.702;9.826;2023-12-20T00:16:49;3.50;99.90
20141;DHT22;10231;47.702;9.826;2023-12-20T00:19:15;3.60;99.90
20141;DHT22;10231;47.702;9.826;2023-12-20T00:21:40;3.50;99.90
20141;DHT22;10231;47.702;9.826;2023-12-20T00:24:06;3.50;99.90
20141;DHT22;10231;47.702;9.826;2023-12-20T00:26:32;3.50;99.90
20141;DHT22;10231;47.702;9.826;2023-12-20T00:28:57;3.50;99.90
20141;DHT22;10231;47.702;9.826;2023-12-20T00:31:23;3.50;99.90
20141;DHT22;10231;47.702;9.826;2023-12-20T00:33:48;3.50;99.90
20141;DHT22;10231;47.702;9.826;2023-12-20T00:36:14;3.50;99.90
20141;DHT22;10231;47.702;9.826;2023-12-20T00:38:39;3.60;99.90
20141;DHT22;10231;47.702;9.826;2023-12-20T00:41:05;3.60;99.90
20141;DHT22;10231;47.702;9.826;2023-12-20T00:43:30;3.70;99.90
20141;DHT22;10231;47.702;9.826;2023-12-20T00:45:56;3.70;99.90
20141;DHT22;10231;47.702;9.826;2023-12-20T00:48:22;3.60;99.90
20141;DHT22;10231;47.702;9.826;2023-12-20T00:50:47;3.70;99.90
20141;DHT22;10231;47.702;9.826;2023-12-20T00:53:13;3.70;99.90
20141;DHT22;10231;47.702;9.826;2023-12-20T00:55:38;3.70;99.90
20141;DHT22;10231;47.702;9.826;2023-12-20T00:58:04;3.70;99.90
20141;DHT22;10231;47.702;9.826;2023-12-20T01:00:30;3.70;99.90
20141;DHT22;10231;47.702;9.826;2023-12-20T01:02:55;3.70;99.90
20141;DHT22;10231;47.702;9.826;2023-12-20T01:05:21;3.80;99.90
20141;DHT22;10231;47.702;9.826;2023-12-20T01:07:49;3.80;99.90
20141;DHT22;10231;47.702;9.826;2023-12-20T01:10:15;3.80;99.90
20141;DHT22;10231;47.702;9.826;2023-12-20T01:12:40;3.80;99.90
20141;DHT22;10231;47.702;9.826;2023-12-20T01:15:06;3.80;99.90
20141;DHT22;10231;47.702;9.826;2023-12-20T01:17:32;3.90;99.90
20141;DHT22;10231;47.702;9.826;2023-12-20T01:19:57;3.80;99.90
20141;DHT22;10231;47.702;9.826;2023-12-20T01:22:23;3.80;99.90
20141;DHT22;10231;47.702;9.826;2023-12-20T01:24:49;3.80;99.90
20141;DHT22;10231;47.702;9.826;2023-12-20T01:27:14;3.70;99.90
20141;DHT22;10231;47.702;9.826;2023-12-20T01:29:40;3.70;99.90
20141;DHT22;10231;47.702;9.826;2023-12-20T01:32:06;3.80;99.90
20141;DHT22;10231;47.702;9.826;2023-12-20T01:34:32;3.70;99.90
20141;DHT22;10231;47.702;9.826;2023-12-20T01:36:57;3.70;99.90
20141;DHT22;10231;47.702;9.826;2023-12-20T01:39:23;3.70;99.90
20141;DHT22;10231;47.702;9.826;2023-12-20T01:41:48;3.80;99.90
20141;DHT22;10231;47.702;9.826;2023-12-20T01:44:14;3.80;99.90
20141;DHT22;10231;47.702;9.826;2023-12-20T01:46:39;3.80;99.90
20141;DHT22;10231;47.702;9.826;2023-12-20T01:49:06;3.80;99.90
20141;DHT22;10231;47.702;9.826;2023-12-20T01:51:32;3.80;99.90
20141;DHT22;10231;47.702;9.826;2023-12-20T01:53:59;3.90;99.90
20141;DHT22;10231;47.702;9.826;2023-12-20T01:56:26;3.90;99.90
20141;DHT22;10231;47.702;9.826;2023-12-20T01:58:53;3.80;99.90
20141;DHT22;10231;47.702;9.826;2023-12-20T02:01:19;3.90;99.90
20141;DHT22;10231;47.702;9.826;2023-12-20T02:03:45;3.80;99.90
20141;DHT22;10231;47.702;9.826;2023-12-20T02:06:11;3.80;99.90
20141;DHT22;10231;47.702;9.826;2023-12-20T02:08:37;3.80;99.90
20141;DHT22;10231;47.702;9.826;2023-12-20T02:11:02;3.80;99.90
20141;DHT22;10231;47.702;9.826;2023-12-20T02:13:28;3.90;99.90
20141;DHT22;10231;47.702;9.826;2023-12-20T02:15:54;3.90;99.90
20141;DHT22;10231;47.702;9.826;2023-12-20T02:18:20;4.00;99.90
20141;DHT22;10231;47.702;9.826;2023-12-20T02:20:46;3.90;99.90
20141;DHT22;10231;47.702;9.826;2023-12-20T02:23:11;3.90;99.90
20141;DHT22;10231;47.702;9.826;2023-12-20T02:25:37;4.00;99.90
20141;DHT22;10231;47.702;9.826;2023-12-20T02:28:03;4.00;99.90
20141;DHT22;10231;47.702;9.826;2023-12-20T02:30:29;4.00;99.90
20141;DHT22;10231;47.702;9.826;2023-12-20T02:32:55;4.00;99.90
20141;DHT22;10231;47.702;9.826;2023-12-20T02:35:21;4.00;99.90
20141;DHT22;10231;47.702;9.826;2023-12-20T02:37:46;3.90;99.90
20141;DHT22;10231;47.702;9.826;2023-12-20T02:40:12;3.90;99.90
20141;DHT22;10231;47.702;9.826;2023-12-20T02:42:38;3.90;99.90
20141;DHT22;10231;47.702;9.826;2023-12-20T02:45:03;3.90;99.90
20141;DHT22;10231;47.702;9.826;2023-12-20T02:47:29;3.90;99.90
20141;DHT22;10231;47.702;9.826;2023-12-20T02:49:55;3.90;99.90
20141;DHT22;10231;47.702;9.826;2023-12-20T02:52:23;3.90;99.90
20141;DHT22;10231;47.702;9.826;2023-12-20T02:54:48;3.90;99.90
20141;DHT22;10231;47.702;9.826;2023-12-20T02:57:14;3.90;99.90
20141;DHT22;10231;47.702;9.826;2023-12-20T02:59:39;3.90;99.90
20141;DHT22;10231;47.702;9.826;2023-12-20T03:02:05;3.90;99.90
20141;DHT22;10231;47.702;9.826;2023-12-20T03:04:30;3.90;99.90
20141;DHT22;10231;47.702;9.826;2023-12-20T03:06:56;3.90;99.90
20141;DHT22;10231;47.702;9.826;2023-12-20T03:09:21;3.90;99.90
20141;DHT22;10231;47.702;9.826;2023-12-20T03:11:47;3.90;99.90
20141;DHT22;10231;47.702;9.826;2023-12-20T03:14:12;3.90;99.90
20141;DHT22;10231;47.702;9.826;2023-12-20T03:16:38;3.80;99.90
20141;DHT22;10231;47.702;9.826;2023-12-20T03:19:03;3.80;99.90
20141;DHT22;10231;47.702;9.826;2023-12-20T03:21:29;3.70;99.90
20141;DHT22;10231;47.702;9.826;2023-12-20T03:23:54;3.60;99.90
20141;DHT22;10231;47.702;9.826;2023-12-20T03:26:20;3.70;99.90
20141;DHT22;10231;47.702;9.826;2023-12-20T03:28:47;3.60;99.90
20141;DHT22;10231;47.702;9.826;2023-12-20T03:31:13;3.70;99.90
20141;DHT22;10231;47.702;9.826;2023-12-20T03:33:39;3.70;99.90
20141;DHT22;10231;47.702;9.826;2023-12-20T03:36:05;3.70;99.90
20141;DHT22;10231;47.702;9.826;2023-12-20T03:38:30;3.60;99.90
20141;DHT22;10231;47.702;9.826;2023-12-20T03:40:56;3.60;99.90
20141;DHT22;10231;47.702;9.826;2023-12-20T03:43:21;3.60;99.90
20141;DHT22;10231;47.702;9.826;2023-12-20T03:45:47;3.60;99.90
20141;DHT22;10231;47.702;9.826;2023-12-20T03:48:13;3.60;99.90
20141;DHT22;10231;47.702;9.826;2023-12-20T03:50:38;3.60;99.90
20141;DHT22;10231;47.702;9.826;2023-12-20T03:53:04;3.60;99.90
20141;DHT22;10231;47.702;9.826;2023-12-20T03:55:29;3.60;99.90
20141;DHT22;10231;47.702;9.826;2023-12-20T03:57:55;3.70;99.90
20141;DHT22;10231;47.702;9.826;2023-12-20T04:00:20;3.70;99.90
20141;DHT22;10231;47.702;9.826;2023-12-20T04:02:46;3.70;99.90
20141;DHT22;10231;47.702;9.826;2023-12-20T04:05:12;3.70;99.90
20141;DHT22;10231;47.702;9.826;2023-12-20T04:07:37;3.80;99.90
20141;DHT22;10231;47.702;9.826;2023-12-20T04:10:04;3.80;99.90
20141;DHT22;10231;47.702;9.826;2023-12-20T04:12:31;3.90;99.90
20141;DHT22;10231;47.702;9.826;2023-12-20T04:14:57;3.90;99.90
20141;DHT22;10231;47.702;9.826;2023-12-20T04:17:23;3.80;99.90
20141;DHT22;10231;47.702;9.826;2023-12-20T04:19:49;3.70;99.90
20141;DHT22;10231;47.702;9.826;2023-12-20T04:22:15;3.70;99.90
20141;DHT22;10231;47.702;9.826;2023-12-20T04:24:40;3.80;99.90
20141;DHT22;10231;47.702;9.826;2023-12-20T04:27:07;3.80;99.90
20141;DHT22;10231;47.702;9.826;2023-12-20T04:29:33;3.80;99.90
20141;DHT22;10231;47.702;9.826;2023-12-20T04:31:59;3.80;99.90
20141;DHT22;10231;47.702;9.826;2023-12-20T04:34:24;3.80;99.90
20141;DHT22;10231;47.702;9.826;2023-12-20T04:36:50;3.90;99.90
20141;DHT22;10231;47.702;9.826;2023-12-20T04:39:16;3.90;99.90
20141;DHT22;10231;47.702;9.826;2023-12-20T04:41:41;3.90;99.90
20141;DHT22;10231;47.702;9.826;2023-12-20T04:44:07;3.90;99.90
20141;DHT22;10231;47.702;9.826;2023-12-20T04:46:32;3.90;99.90
20141;DHT22;10231;47.702;9.826;2023-12-20T04:48:58;3.80;99.90
20141;DHT22;10231;47.702;9.826;2023-12-20T04:51:23;3.80;99.90
20141;DHT22;10231;47.702;9.826;2023-12-20T04:53:49;3.80;99.90
20141;DHT22;10231;47.702;9.826;2023-12-20T04:56:14;3.80;99.90
20141;DHT22;10231;47.702;9.826;2023-12-20T04:58:40;3.80;99.90
20141;DHT22;10231;47.702;9.826;2023-12-20T05:01:06;3.70;99.90
20141;DHT22;10231;47.702;9.826;2023-12-20T05:03:32;3.70;99.90
20141;DHT22;10231;47.702;9.826;2023-12-20T05:05:58;3.70;99.90
20141;DHT22;10231;47.702;9.826;2023-12-20T05:08:23;3.80;99.90
20141;DHT22;10231;47.702;9.826;2023-12-20T05:10:50;3.80;99.90
20141;DHT22;10231;47.702;9.826;2023-12-20T05:13:16;3.80;99.90
20141;DHT22;10231;47.702;9.826;2023-12-20T05:15:42;3.80;99.90
20141;DHT22;10231;47.702;9.826;2023-12-20T05:18:07;3.80;99.90
20141;DHT22;10231;47.702;9.826;2023-12-20T05:20:33;3.90;99.90
20141;DHT22;10231;47.702;9.826;2023-12-20T05:22:58;3.90;99.90
20141;DHT22;10231;47.702;9.826;2023-12-20T05:25:24;3.90;99.90
20141;DHT22;10231;47.702;9.826;2023-12-20T05:27:50;3.90;99.90
20141;DHT22;10231;47.702;9.826;2023-12-20T05:30:16;3.90;99.90
20141;DHT22;10231;47.702;9.826;2023-12-20T05:32:41;3.90;99.90
20141;DHT22;10231;47.702;9.826;2023-12-20T05:35:07;3.90;99.90
20141;DHT22;10231;47.702;9.826;2023-12-20T05:37:32;3.90;99.90
20141;DHT22;10231;47.702;9.826;2023-12-20T05:39:58;3.90;99.90
20141;DHT22;10231;47.702;9.826;2023-12-20T05:42:23;3.90;99.90
20141;DHT22;10231;47.702;9.826;2023-12-20T05:44:49;3.90;99.90
20141;DHT22;10231;47.702;9.826;2023-12-20T05:47:15;3.90;99.90
20141;DHT22;10231;47.702;9.826;2023-12-20T05:49:40;3.90;99.90
20141;DHT22;10231;47.702;9.826;2023-12-20T05:52:06;4.00;99.90
20141;DHT22;10231;47.702;9.826;2023-12-20T05:54:31;4.00;99.90
20141;DHT22;10231;47.702;9.826;2023-12-20T05:56:57;4.00;99.90
20141;DHT22;10231;47.702;9.826;2023-12-20T05:59:22;4.00;99.90
20141;DHT22;10231;47.702;9.826;2023-12-20T06:01:48;4.00;99.90
20141;DHT22;10231;47.702;9.826;2023-12-20T06:04:14;4.00;99.90
20141;DHT22;10231;47.702;9.826;2023-12-20T06:06:42;4.00;99.90
20141;DHT22;10231;47.702;9.826;2023-12-20T06:09:08;4.00;99.90
20141;DHT22;10231;47.702;9.826;2023-12-20T06:11:34;4.00;99.90
20141;DHT22;10231;47.702;9.826;2023-12-20T06:13:59;4.10;99.90
20141;DHT22;10231;47.702;9.826;2023-12-20T06:16:25;4.00;99.90
20141;DHT22;10231;47.702;9.826;2023-12-20T06:18:51;4.00;99.90
20141;DHT22;10231;47.702;9.826;2023-12-20T06:21:16;4.00;99.90
20141;DHT22;10231;47.702;9.826;2023-12-20T06:23:42;4.10;99.90
20141;DHT22;10231;47.702;9.826;2023-12-20T06:26:07;4.00;99.90
20141;DHT22;10231;47.702;9.826;2023-12-20T06:28:33;4.10;99.90
20141;DHT22;10231;47.702;9.826;2023-12-20T06:30:58;4.10;99.90
20141;DHT22;10231;47.702;9.826;2023-12-20T06:33:26;4.10;99.90
20141;DHT22;10231;47.702;9.826;2023-12-20T06:35:51;4.00;99.90
20141;DHT22;10231;47.702;9.826;2023-12-20T06:38:18;4.00;99.90
20141;DHT22;10231;47.702;9.826;2023-12-20T06:40:44;4.00;99.90
20141;DHT22;10231;47.702;9.826;2023-12-20T06:43:10;4.00;99.90
20141;DHT22;10231;47.702;9.826;2023-12-20T06:45:35;4.00;99.90
20141;DHT22;10231;47.702;9.826;2023-12-20T06:48:01;4.00;99.90
20141;DHT22;10231;47.702;9.826;2023-12-20T06:50:26;4.10;99.90
20141;DHT22;10231;47.702;9.826;2023-12-20T06:52:52;4.00;99.90
20141;DHT22;10231;47.702;9.826;2023-12-20T06:55:18;4.10;99.90
20141;DHT22;10231;47.702;9.826;2023-12-20T06:57:44;4.10;99.90
20141;DHT22;10231;47.702;9.826;2023-12-20T07:00:11;4.00;99.90
20141;DHT22;10231;47.702;9.826;2023-12-20T07:02:36;4.00;99.90
20141;DHT22;10231;47.702;9.826;2023-12-20T07:05:02;4.10;99.90
20141;DHT22;10231;47.702;9.826;2023-12-20T07:07:28;4.10;99.90
20141;DHT22;10231;47.702;9.826;2023-12-20T07:09:53;4.10;99.90
20141;DHT22;10231;47.702;9.826;2023-12-20T07:12:19;4.10;99.90
20141;DHT22;10231;47.702;9.826;2023-12-20T07:14:45;4.20;99.90
20141;DHT22;10231;47.702;9.826;2023-12-20T07:17:11;4.20;99.90
20141;DHT22;10231;47.702;9.826;2023-12-20T07:19:39;4.20;99.90
20141;DHT22;10231;47.702;9.826;2023-12-20T07:22:06;4.20;99.90
20141;DHT22;10231;47.702;9.826;2023-12-20T07:24:32;4.20;99.90
20141;DHT22;10231;47.702;9.826;2023-12-20T07:26:59;4.20;99.90
20141;DHT22;10231;47.702;9.826;2023-12-20T07:29:25;4.20;99.90
20141;DHT22;10231;47.702;9.826;2023-12-20T07:31:51;4.20;99.90
20141;DHT22;10231;47.702;9.826;2023-12-20T07:34:17;4.20;99.90
20141;DHT22;10231;47.702;9.826;2023-12-20T07:36:43;4.20;99.90
20141;DHT22;10231;47.702;9.826;2023-12-20T07:39:09;4.20;99.90
20141;DHT22;10231;47.702;9.826;2023-12-20T07:41:34;4.20;99.90
20141;DHT22;10231;47.702;9.826;2023-12-20T07:44:00;4.20;99.90
20141;DHT22;10231;47.702;9.826;2023-12-20T07:46:25;4.20;99.90
20141;DHT22;10231;47.702;9.826;2023-12-20T07:48:51;4.20;99.90
20141;DHT22;10231;47.702;9.826;2023-12-20T07:51:16;4.10;99.90
20141;DHT22;10231;47.702;9.826;2023-12-20T07:53:42;4.20;99.90
20141;DHT22;10231;47.702;9.826;2023-12-20T07:56:18;4.20;99.90
20141;DHT22;10231;47.702;9.826;2023-12-20T07:58:45;4.10;99.90
20141;DHT22;10231;47.702;9.826;2023-12-20T08:01:11;4.10;99.90
20141;DHT22;10231;47.702;9.826;2023-12-20T08:03:37;4.20;99.90
20141;DHT22;10231;47.702;9.826;2023-12-20T08:06:03;4.10;99.90
20141;DHT22;10231;47.702;9.826;2023-12-20T08:08:28;4.20;99.90
20141;DHT22;10231;47.702;9.826;2023-12-20T08:10:54;4.30;99.90
20141;DHT22;10231;47.702;9.826;2023-12-20T08:13:19;4.30;99.90
20141;DHT22;10231;47.702;9.826;2023-12-20T08:15:45;4.30;99.90
20141;DHT22;10231;47.702;9.826;2023-12-20T08:18:11;4.30;99.90
20141;DHT22;10231;47.702;9.826;2023-12-20T08:20:36;4.30;99.90
20141;DHT22;10231;47.702;9.826;2023-12-20T08:23:02;4.20;99.90
20141;DHT22;10231;47.702;9.826;2023-12-20T08:25:28;4.30;99.90
20141;DHT22;10231;47.702;9.826;2023-12-20T08:27:53;4.70;99.90
20141;DHT22;10231;47.702;9.826;2023-12-20T08:30:19;4.30;99.90
20141;DHT22;10231;47.702;9.826;2023-12-20T08:32:50;4.30;99.90
20141;DHT22;10231;47.702;9.826;2023-12-20T08:35:15;4.30;99.90
20141;DHT22;10231;47.702;9.826;2023-12-20T08:37:41;4.20;99.90
20141;DHT22;10231;47.702;9.826;2023-12-20T08:40:07;4.20;99.90
20141;DHT22;10231;47.702;9.826;2023-12-20T08:42:32;4.20;99.90
20141;DHT22;10231;47.702;9.826;2023-12-20T08:44:58;4.20;99.90
20141;DHT22;10231;47.702;9.826;2023-12-20T08:47:24;4.20;99.90
20141;DHT22;10231;47.702;9.826;2023-12-20T08:49:50;4.30;99.90
20141;DHT22;10231;47.702;9.826;2023-12-20T08:52:16;4.30;99.90
20141;DHT22;10231;47.702;9.826;2023-12-20T08:54:41;4.30;99.90
20141;DHT22;10231;47.702;9.826;2023-12-20T08:57:07;4.30;99.90
20141;DHT22;10231;47.702;9.826;2023-12-20T08:59:33;4.30;99.90
20141;DHT22;10231;47.702;9.826;2023-12-20T09:01:58;4.30;99.90
20141;DHT22;10231;47.702;9.826;2023-12-20T09:04:24;4.30;99.90
20141;DHT22;10231;47.702;9.826;2023-12-20T09:06:50;4.40;99.90
20141;DHT22;10231;47.702;9.826;2023-12-20T09:09:15;4.40;99.90
20141;DHT22;10231;47.702;9.826;2023-12-20T09:11:41;4.40;99.90
20141;DHT22;10231;47.702;9.826;2023-12-20T09:14:07;4.40;99.90
20141;DHT22;10231;47.702;9.826;2023-12-20T09:16:33;4.40;99.90
20141;DHT22;10231;47.702;9.826;2023-12-20T09:18:58;4.40;99.90
20141;DHT22;10231;47.702;9.826;2023-12-20T09:21:24;4.40;99.90
20141;DHT22;10231;47.702;9.826;2023-12-20T09:23:50;4.40;99.90
20141;DHT22;10231;47.702;9.826;2023-12-20T09:26:15;4.40;99.90
20141;DHT22;10231;47.702;9.826;2023-12-20T09:28:41;4.40;99.90
20141;DHT22;10231;47.702;9.826;2023-12-20T09:31:06;4.40;99.90
20141;DHT22;10231;47.702;9.826;2023-12-20T09:33:35;4.40;99.90
20141;DHT22;10231;47.702;9.826;2023-12-20T09:36:00;4.40;99.90
20141;DHT22;10231;47.702;9.826;2023-12-20T09:38:26;4.30;99.90
20141;DHT22;10231;47.702;9.826;2023-12-20T09:40:52;4.30;99.90
20141;DHT22;10231;47.702;9.826;2023-12-20T09:43:19;4.30;99.90
20141;DHT22;10231;47.702;9.826;2023-12-20T09:45:47;4.40;99.90
20141;DHT22;10231;47.702;9.826;2023-12-20T09:48:13;4.40;99.90
20141;DHT22;10231;47.702;9.826;2023-12-20T09:50:42;4.40;99.90
20141;DHT22;10231;47.702;9.826;2023-12-20T09:53:14;4.40;99.90
20141;DHT22;10231;47.702;9.826;2023-12-20T09:55:41;4.40;99.90
20141;DHT22;10231;47.702;9.826;2023-12-20T09:58:06;4.40;99.90
20141;DHT22;10231;47.702;9.826;2023-12-20T10:00:37;4.40;99.90
20141;DHT22;10231;47.702;9.826;2023-12-20T10:03:03;4.50;99.90
20141;DHT22;10231;47.702;9.826;2023-12-20T10:05:32;4.50;99.90
20141;DHT22;10231;47.702;9.826;2023-12-20T10:07:59;4.50;99.90
20141;DHT22;10231;47.702;9.826;2023-12-20T10:10:25;4.50;99.90
20141;DHT22;10231;47.702;9.826;2023-12-20T10:13:10;4.50;99.90
20141;DHT22;10231;47.702;9.826;2023-12-20T10:15:36;4.50;99.90
20141;DHT22;10231;47.702;9.826;2023-12-20T10:18:02;4.60;99.90
20141;DHT22;10231;47.702;9.826;2023-12-20T10:20:29;4.60;99.90
20141;DHT22;10231;47.702;9.826;2023-12-20T10:22:56;4.60;99.90
20141;DHT22;10231;47.702;9.826;2023-12-20T10:25:22;4.60;99.90
20141;DHT22;10231;47.702;9.826;2023-12-20T10:27:49;4.70;99.90
20141;DHT22;10231;47.702;9.826;2023-12-20T10:30:14;4.70;99.90
20141;DHT22;10231;47.702;9.826;2023-12-20T10:32:40;4.70;99.90
20141;DHT22;10231;47.702;9.826;2023-12-20T10:35:09;4.70;99.90
20141;DHT22;10231;47.702;9.826;2023-12-20T10:37:36;4.70;99.90
20141;DHT22;10231;47.702;9.826;2023-12-20T10:40:03;4.70;99.90
20141;DHT22;10231;47.702;9.826;2023-12-20T10:42:29;4.70;99.90
20141;DHT22;10231;47.702;9.826;2023-12-20T10:44:56;4.70;99.90
20141;DHT22;10231;47.702;9.826;2023-12-20T10:47:25;4.80;99.90
20141;DHT22;10231;47.702;9.826;2023-12-20T10:49:52;4.80;99.90
20141;DHT22;10231;47.702;9.826;2023-12-20T10:52:18;4.80;99.90
20141;DHT22;10231;47.702;9.826;2023-12-20T10:54:44;4.80;99.90
20141;DHT22;10231;47.702;9.826;2023-12-20T10:57:10;4.80;99.90
20141;DHT22;10231;47.702;9.826;2023-12-20T10:59:37;4.80;99.90
20141;DHT22;10231;47.702;9.826;2023-12-20T11:02:04;4.80;99.90
20141;DHT22;10231;47.702;9.826;2023-12-20T11:10:31;4.90;99.90
20141;DHT22;10231;47.702;9.826;2023-12-20T11:13:08;4.80;99.90
20141;DHT22;10231;47.702;9.826;2023-12-20T11:15:36;4.90;99.90
20141;DHT22;10231;47.702;9.826;2023-12-20T11:18:02;4.90;99.90
20141;DHT22;10231;47.702;9.826;2023-12-20T11:20:36;4.90;99.90
20141;DHT22;10231;47.702;9.826;2023-12-20T11:23:03;4.90;99.90
20141;DHT22;10231;47.702;9.826;2023-12-20T11:25:29;4.90;99.90
20141;DHT22;10231;47.702;9.826;2023-12-20T11:28:10;4.90;99.90
20141;DHT22;10231;47.702;9.826;2023-12-20T11:30:52;4.90;99.90
20141;DHT22;10231;47.702;9.826;2023-12-20T11:33:45;4.90;99.90
20141;DHT22;10231;47.702;9.826;2023-12-20T11:36:14;4.90;99.90
20141;DHT22;10231;47.702;9.826;2023-12-20T11:38:57;4.90;99.90
20141;DHT22;10231;47.702;9.826;2023-12-20T11:41:23;4.90;99.90
20141;DHT22;10231;47.702;9.826;2023-12-20T11:43:53;4.80;99.90
20141;DHT22;10231;47.702;9.826;2023-12-20T11:46:19;4.80;99.90
20141;DHT22;10231;47.702;9.826;2023-12-20T11:48:44;4.90;99.90
20141;DHT22;10231;47.702;9.826;2023-12-20T11:51:11;4.80;99.90
20141;DHT22;10231;47.702;9.826;2023-12-20T11:53:37;4.80;99.90
20141;DHT22;10231;47.702;9.826;2023-12-20T11:56:05;4.80;99.90
20141;DHT22;10231;47.702;9.826;2023-12-20T11:58:31;4.80;99.90
20141;DHT22;10231;47.702;9.826;2023-12-20T12:00:57;4.80;99.90
20141;DHT22;10231;47.702;9.826;2023-12-20T12:03:22;4.80;99.90
20141;DHT22;10231;47.702;9.826;2023-12-20T12:05:49;4.80;99.90
20141;DHT22;10231;47.702;9.826;2023-12-20T12:08:15;4.80;99.90
20141;DHT22;10231;47.702;9.826;2023-12-20T12:10:40;4.80;99.90
20141;DHT22;10231;47.702;9.826;2023-12-20T12:13:06;4.80;99.90
20141;DHT22;10231;47.702;9.826;2023-12-20T12:15:32;4.80;99.90
20141;DHT22;10231;47.702;9.826;2023-12-20T12:17:57;4.80;99.90
20141;DHT22;10231;47.702;9.826;2023-12-20T12:20:24;4.80;99.90
20141;DHT22;10231;47.702;9.826;2023-12-20T12:25:25;4.90;99.90
20141;DHT22;10231;47.702;9.826;2023-12-20T12:27:51;4.80;99.90
20141;DHT22;10231;47.702;9.826;2023-12-20T12:30:17;4.80;99.90
20141;DHT22;10231;47.702;9.826;2023-12-20T12:32:44;4.80;99.90
20141;DHT22;10231;47.702;9.826;2023-12-20T12:35:09;4.80;99.90
20141;DHT22;10231;47.702;9.826;2023-12-20T12:37:40;4.90;99.90
20141;DHT22;10231;47.702;9.826;2023-12-20T12:40:09;4.90;99.90
20141;DHT22;10231;47.702;9.826;2023-12-20T12:42:35;4.90;99.90
20141;DHT22;10231;47.702;9.826;2023-12-20T12:45:01;4.90;99.90
20141;DHT22;10231;47.702;9.826;2023-12-20T12:47:26;4.90;99.90
20141;DHT22;10231;47.702;9.826;2023-12-20T12:49:52;4.90;99.90
20141;DHT22;10231;47.702;9.826;2023-12-20T12:52:18;5.00;99.90
20141;DHT22;10231;47.702;9.826;2023-12-20T12:54:44;5.00;99.90
20141;DHT22;10231;47.702;9.826;2023-12-20T12:57:11;5.00;99.90
20141;DHT22;10231;47.702;9.826;2023-12-20T12:59:36;5.00;99.90
20141;DHT22;10231;47.702;9.826;2023-12-20T13:02:02;5.00;99.90
20141;DHT22;10231;47.702;9.826;2023-12-20T13:04:27;5.00;99.90
20141;DHT22;10231;47.702;9.826;2023-12-20T13:06:53;5.10;99.90
20141;DHT22;10231;47.702;9.826;2023-12-20T13:09:19;5.10;99.90
20141;DHT22;10231;47.702;9.826;2023-12-20T13:11:44;5.20;99.90
20141;DHT22;10231;47.702;9.826;2023-12-20T13:14:10;5.20;99.90
20141;DHT22;10231;47.702;9.826;2023-12-20T13:16:41;5.20;99.90
20141;DHT22;10231;47.702;9.826;2023-12-20T13:19:07;5.20;99.90
20141;DHT22;10231;47.702;9.826;2023-12-20T13:21:32;5.20;99.90
20141;DHT22;10231;47.702;9.826;2023-12-20T13:23:58;5.20;99.90
20141;DHT22;10231;47.702;9.826;2023-12-20T13:26:23;5.20;99.90
20141;DHT22;10231;47.702;9.826;2023-12-20T13:28:49;5.20;99.90
20141;DHT22;10231;47.702;9.826;2023-12-20T13:31:14;5.20;99.90
20141;DHT22;10231;47.702;9.826;2023-12-20T13:33:40;5.30;99.90
20141;DHT22;10231;47.702;9.826;2023-12-20T13:36:06;5.30;99.90
20141;DHT22;10231;47.702;9.826;2023-12-20T13:38:31;5.30;99.90
20141;DHT22;10231;47.702;9.826;2023-12-20T13:40:57;5.30;99.90
20141;DHT22;10231;47.702;9.826;2023-12-20T13:43:24;5.30;99.90
20141;DHT22;10231;47.702;9.826;2023-12-20T13:45:50;5.20;99.90
20141;DHT22;10231;47.702;9.826;2023-12-20T13:48:16;5.20;99.90
20141;DHT22;10231;47.702;9.826;2023-12-20T13:50:41;5.20;99.90
20141;DHT22;10231;47.702;9.826;2023-12-20T13:53:07;5.20;99.90
20141;DHT22;10231;47.702;9.826;2023-12-20T13:55:32;5.20;99.90
20141;DHT22;10231;47.702;9.826;2023-12-20T13:57:58;5.20;99.90
20141;DHT22;10231;47.702;9.826;2023-12-20T14:00:24;5.10;99.90
20141;DHT22;10231;47.702;9.826;2023-12-20T14:02:49;5.10;99.90
20141;DHT22;10231;47.702;9.826;2023-12-20T14:05:16;5.10;99.90
20141;DHT22;10231;47.702;9.826;2023-12-20T14:07:43;5.10;99.90
20141;DHT22;10231;47.702;9.826;2023-12-20T14:10:13;5.10;99.90
20141;DHT22;10231;47.702;9.826;2023-12-20T14:12:39;5.10;99.90
20141;DHT22;10231;47.702;9.826;2023-12-20T14:15:04;5.10;99.90
20141;DHT22;10231;47.702;9.826;2023-12-20T14:17:34;5.00;99.90
20141;DHT22;10231;47.702;9.826;2023-12-20T14:20:00;5.00;99.90
20141;DHT22;10231;47.702;9.826;2023-12-20T14:22:25;5.00;99.90
20141;DHT22;10231;47.702;9.826;2023-12-20T14:24:51;5.00;99.90
20141;DHT22;10231;47.702;9.826;2023-12-20T14:27:16;5.00;99.90
20141;DHT22;10231;47.702;9.826;2023-12-20T14:29:42;5.00;99.90
20141;DHT22;10231;47.702;9.826;2023-12-20T14:32:07;5.00;99.90
20141;DHT22;10231;47.702;9.826;2023-12-20T14:34:33;4.90;99.90
20141;DHT22;10231;47.702;9.826;2023-12-20T14:36:58;4.90;99.90
20141;DHT22;10231;47.702;9.826;2023-12-20T14:39:24;4.90;99.90
20141;DHT22;10231;47.702;9.826;2023-12-20T14:41:49;5.40;99.90
20141;DHT22;10231;47.702;9.826;2023-12-20T14:44:15;4.90;99.90
20141;DHT22;10231;47.702;9.826;2023-12-20T14:46:42;4.90;99.90
20141;DHT22;10231;47.702;9.826;2023-12-20T14:49:07;4.90;99.90
20141;DHT22;10231;47.702;9.826;2023-12-20T14:51:33;4.80;99.90
20141;DHT22;10231;47.702;9.826;2023-12-20T14:53:58;4.90;99.90
20141;DHT22;10231;47.702;9.826;2023-12-20T14:56:24;4.90;99.90
20141;DHT22;10231;47.702;9.826;2023-12-20T14:58:51;4.90;99.90
20141;DHT22;10231;47.702;9.826;2023-12-20T15:01:17;4.90;99.90
20141;DHT22;10231;47.702;9.826;2023-12-20T15:03:46;4.90;99.90
20141;DHT22;10231;47.702;9.826;2023-12-20T15:06:12;4.90;99.90
20141;DHT22;10231;47.702;9.826;2023-12-20T15:08:37;4.90;99.90
20141;DHT22;10231;47.702;9.826;2023-12-20T15:11:03;4.80;99.90
20141;DHT22;10231;47.702;9.826;2023-12-20T15:13:29;4.80;99.90
20141;DHT22;10231;47.702;9.826;2023-12-20T15:15:56;4.80;99.90
20141;DHT22;10231;47.702;9.826;2023-12-20T15:18:21;4.80;99.90
20141;DHT22;10231;47.702;9.826;2023-12-20T15:20:47;4.70;99.90
20141;DHT22;10231;47.702;9.826;2023-12-20T15:23:13;4.70;99.90
20141;DHT22;10231;47.702;9.826;2023-12-20T15:25:39;4.60;99.90
20141;DHT22;10231;47.702;9.826;2023-12-20T15:28:04;4.60;99.90
20141;DHT22;10231;47.702;9.826;2023-12-20T15:30:30;4.60;99.90
20141;DHT22;10231;47.702;9.826;2023-12-20T15:32:56;4.60;99.90
20141;DHT22;10231;47.702;9.826;2023-12-20T15:35:22;4.50;99.90
20141;DHT22;10231;47.702;9.826;2023-12-20T15:37:47;4.50;99.90
20141;DHT22;10231;47.702;9.826;2023-12-20T15:40:13;4.50;99.90
20141;DHT22;10231;47.702;9.826;2023-12-20T15:42:39;4.50;99.90
20141;DHT22;10231;47.702;9.826;2023-12-20T15:45:06;4.50;99.90
20141;DHT22;10231;47.702;9.826;2023-12-20T15:47:33;4.50;99.90